createdAt,value
2022-08-22T00:00:45.089Z,4.03
2022-08-22T00:02:58.484Z,2.00
2022-08-22T00:03:00.472Z,2.60
2022-08-22T00:03:30.794Z,4.10
2022-08-22T00:06:09.229Z,4.22
2022-08-22T00:08:48.466Z,4.50
2022-08-22T00:11:28.411Z,4.53
2022-08-22T00:14:02.888Z,4.47
2022-08-22T00:16:39.779Z,4.03
2022-08-22T00:19:18.831Z,4.43
2022-08-22T00:21:54.332Z,4.37
2022-08-22T00:24:29.376Z,5.00
2022-08-22T00:27:04.255Z,4.80
2022-08-22T00:29:38.498Z,4.33
2022-08-22T00:32:13.495Z,4.50
2022-08-22T00:34:48.493Z,5.10
2022-08-22T00:37:24.288Z,5.03
2022-08-22T00:39:59.338Z,5.00
2022-08-22T00:42:53.844Z,4.60
2022-08-22T00:45:59.514Z,4.00
2022-08-22T00:48:57.020Z,4.27
2022-08-22T00:51:55.460Z,4.30
2022-08-22T00:54:32.543Z,4.73
2022-08-22T00:57:26.803Z,5.43
2022-08-22T01:00:11.050Z,4.43
2022-08-22T01:03:07.866Z,4.60
2022-08-22T01:05:48.509Z,4.30
2022-08-22T01:08:32.348Z,4.53
2022-08-22T01:11:12.390Z,4.57
2022-08-22T01:14:07.017Z,4.40
2022-08-22T01:16:56.238Z,4.80
2022-08-22T01:20:26.913Z,4.77
2022-08-22T01:23:41.428Z,5.47
2022-08-22T01:26:44.776Z,4.97
2022-08-22T01:30:12.587Z,4.70
2022-08-22T01:33:10.176Z,4.40
2022-08-22T01:36:19.323Z,4.53
2022-08-22T01:39:22.565Z,4.70
2022-08-22T01:42:13.633Z,4.30
2022-08-22T01:45:08.177Z,5.10
2022-08-22T01:47:39.358Z,4.43
2022-08-22T01:50:18.242Z,4.67
2022-08-22T01:52:51.268Z,4.70
2022-08-22T01:55:27.493Z,4.67
2022-08-22T01:58:00.658Z,4.70
2022-08-22T02:00:35.312Z,4.10
2022-08-22T02:03:18.491Z,4.47
2022-08-22T02:05:51.400Z,4.77
2022-08-22T02:08:30.995Z,4.93
2022-08-22T02:11:05.043Z,4.60
2022-08-22T02:13:52.165Z,6.13
2022-08-22T02:16:32.909Z,5.45
2022-08-22T02:19:23.701Z,5.63
2022-08-22T02:21:56.431Z,5.57
2022-08-22T02:24:36.462Z,5.50
2022-08-22T02:27:11.204Z,5.50
2022-08-22T02:29:44.622Z,5.00
2022-08-22T02:32:20.621Z,4.60
2022-08-22T02:34:57.193Z,4.83
2022-08-22T02:37:36.626Z,4.73
2022-08-22T02:40:15.903Z,4.63
2022-08-22T02:42:49.319Z,4.63
2022-08-22T02:45:28.756Z,4.83
2022-08-22T02:48:05.010Z,5.70
2022-08-22T02:50:39.603Z,4.80
2022-08-22T02:53:15.324Z,5.83
2022-08-22T02:55:53.187Z,4.80
2022-08-22T02:58:29.145Z,5.07
2022-08-22T03:01:21.850Z,4.93
2022-08-22T03:03:51.493Z,5.10
2022-08-22T03:06:39.081Z,5.30
2022-08-22T03:09:19.763Z,4.80
2022-08-22T03:12:02.635Z,4.90
2022-08-22T03:14:35.555Z,5.60
2022-08-22T03:17:08.682Z,4.90
2022-08-22T03:19:51.159Z,5.47
2022-08-22T03:22:24.452Z,5.30
2022-08-22T03:24:57.747Z,5.10
2022-08-22T03:27:34.475Z,5.53
2022-08-22T03:30:07.450Z,5.80
2022-08-22T03:32:50.582Z,5.33
2022-08-22T03:35:35.503Z,5.80
2022-08-22T03:38:24.075Z,5.13
2022-08-22T03:41:09.488Z,5.07
2022-08-22T03:44:04.021Z,5.93
2022-08-22T03:46:56.791Z,5.20
2022-08-22T03:50:01.786Z,5.23
2022-08-22T03:53:04.790Z,5.17
2022-08-22T03:55:45.610Z,5.60
2022-08-22T03:58:40.167Z,6.40
2022-08-22T04:01:41.208Z,6.27
2022-08-22T04:04:41.466Z,5.83
2022-08-22T04:07:49.179Z,5.43
2022-08-22T04:10:42.395Z,5.40
2022-08-22T04:13:36.246Z,5.87
2022-08-22T04:16:42.994Z,6.03
2022-08-22T04:19:31.475Z,5.20
2022-08-22T04:22:17.786Z,5.30
2022-08-22T04:24:55.001Z,5.30
2022-08-22T04:27:28.946Z,5.83
2022-08-22T04:30:06.474Z,5.93
2022-08-22T04:32:43.344Z,5.30
2022-08-22T04:35:18.583Z,5.90
2022-08-22T04:37:52.116Z,5.80
2022-08-22T04:40:26.641Z,6.30
2022-08-22T04:42:59.872Z,6.13
2022-08-22T04:45:34.451Z,4.93
2022-08-22T04:48:07.683Z,5.50
2022-08-22T04:50:43.215Z,5.03
2022-08-22T04:53:23.160Z,5.70
2022-08-22T04:56:03.032Z,6.53
2022-08-22T04:58:42.903Z,5.53
2022-08-22T05:01:16.710Z,5.80
2022-08-22T05:03:52.020Z,5.53
2022-08-22T05:06:24.254Z,5.97
2022-08-22T05:08:55.076Z,6.10
2022-08-22T05:11:24.858Z,5.70
2022-08-22T05:13:56.039Z,5.77
2022-08-22T05:16:29.007Z,6.50
2022-08-22T05:19:03.011Z,6.10
2022-08-22T05:21:34.887Z,5.30
2022-08-22T05:24:07.563Z,5.77
2022-08-22T05:26:38.591Z,5.40
2022-08-22T05:29:09.358Z,6.10
2022-08-22T05:31:42.379Z,6.00
2022-08-22T05:34:16.637Z,5.20
2022-08-22T05:36:49.329Z,5.93
2022-08-22T05:39:20.108Z,5.70
2022-08-22T05:41:50.138Z,6.47
2022-08-22T05:44:23.611Z,5.43
2022-08-22T05:46:56.019Z,6.77
2022-08-22T05:49:34.335Z,5.07
2022-08-22T05:52:12.697Z,5.63
2022-08-22T05:54:50.025Z,5.40
2022-08-22T05:57:24.772Z,6.53
2022-08-22T06:00:00.619Z,4.93
2022-08-22T06:02:45.812Z,5.57
2022-08-22T06:05:21.098Z,5.80
2022-08-22T06:07:51.235Z,6.03
2022-08-22T06:10:24.618Z,4.93
2022-08-22T06:12:59.085Z,5.73
2022-08-22T06:15:35.177Z,4.87
2022-08-22T06:18:06.734Z,5.13
2022-08-22T06:20:40.453Z,4.90
2022-08-22T06:23:12.363Z,4.40
2022-08-22T06:25:44.967Z,4.73
2022-08-22T06:28:18.716Z,4.87
2022-08-22T06:30:48.367Z,5.27
2022-08-22T06:33:21.941Z,6.27
2022-08-22T06:36:13.542Z,4.30
2022-08-22T06:38:56.806Z,5.03
2022-08-22T06:41:29.411Z,5.23
2022-08-22T06:43:58.755Z,4.77
2022-08-22T06:46:30.758Z,5.67
2022-08-22T06:49:01.560Z,5.33
2022-08-22T06:51:31.328Z,6.10
2022-08-22T06:54:03.431Z,4.87
2022-08-22T06:56:36.016Z,5.50
2022-08-22T06:59:09.337Z,5.30
2022-08-22T07:01:48.054Z,4.33
2022-08-22T07:04:16.686Z,4.90
2022-08-22T07:06:50.849Z,4.30
2022-08-22T07:09:23.941Z,3.40
2022-08-22T07:11:52.827Z,4.47
2022-08-22T07:14:28.340Z,3.63
2022-08-22T07:16:58.577Z,4.20
2022-08-22T07:19:28.991Z,3.70
2022-08-22T07:22:01.338Z,3.77
2022-08-22T07:24:33.674Z,4.00
2022-08-22T07:27:12.626Z,3.70
2022-08-22T07:29:57.223Z,4.03
2022-08-22T07:32:33.938Z,3.60
2022-08-22T07:35:09.294Z,4.00
2022-08-22T07:37:51.890Z,3.40
2022-08-22T07:40:24.551Z,2.87
2022-08-22T07:42:58.047Z,2.90
2022-08-22T07:45:34.844Z,2.50
2022-08-22T07:48:19.758Z,3.23
2022-08-22T07:51:00.405Z,3.40
2022-08-22T07:53:36.751Z,3.17
2022-08-22T07:56:07.294Z,2.97
2022-08-22T07:58:40.244Z,2.93
2022-08-22T08:01:10.809Z,2.80
2022-08-22T08:03:39.512Z,2.50
2022-08-22T08:06:10.396Z,2.67
2022-08-22T08:08:42.971Z,2.23
2022-08-22T08:11:13.901Z,2.07
2022-08-22T08:13:45.350Z,2.27
2022-08-22T08:16:19.275Z,2.80
2022-08-22T08:18:49.970Z,3.03
2022-08-22T08:21:26.478Z,2.70
2022-08-22T08:23:57.741Z,2.63
2022-08-22T08:26:32.707Z,2.77
2022-08-22T08:29:00.031Z,2.37
2022-08-22T08:31:31.860Z,2.13
2022-08-22T08:34:05.150Z,2.03
2022-08-22T08:36:40.200Z,2.10
2022-08-22T08:39:20.463Z,3.63
2022-08-22T08:42:21.717Z,2.10
2022-08-22T08:45:18.671Z,2.73
2022-08-22T08:48:01.092Z,2.50
2022-08-22T08:50:46.182Z,2.10
2022-08-22T08:53:39.332Z,2.40
2022-08-22T08:56:20.089Z,2.50
2022-08-22T08:58:55.663Z,2.30
2022-08-22T09:01:48.290Z,2.13
2022-08-22T09:04:38.451Z,2.53
2022-08-22T09:07:33.124Z,2.40
2022-08-22T09:10:33.534Z,2.23
2022-08-22T09:13:25.485Z,2.10
2022-08-22T09:16:10.875Z,2.20
2022-08-22T09:19:12.645Z,2.43
2022-08-22T09:22:07.244Z,2.20
2022-08-22T09:25:11.744Z,2.43
2022-08-22T09:27:49.447Z,2.20
2022-08-22T09:30:28.486Z,1.70
2022-08-22T09:33:01.171Z,2.20
2022-08-22T09:35:47.675Z,1.90
2022-08-22T09:38:34.633Z,2.00
2022-08-22T09:41:15.684Z,2.00
2022-08-22T09:43:49.131Z,1.90
2022-08-22T09:46:21.810Z,3.47
2022-08-22T09:49:05.450Z,2.67
2022-08-22T09:51:40.470Z,2.20
2022-08-22T09:54:32.929Z,2.07
2022-08-22T09:57:16.970Z,1.80
2022-08-22T09:59:58.493Z,2.00
2022-08-22T10:02:36.247Z,2.37
2022-08-22T10:05:13.486Z,2.00
2022-08-22T10:08:13.860Z,1.63
2022-08-22T10:11:03.735Z,2.07
2022-08-22T10:13:44.394Z,2.03
2022-08-22T10:16:25.507Z,1.90
2022-08-22T10:19:08.582Z,2.30
2022-08-22T10:21:44.632Z,2.77
2022-08-22T10:24:25.478Z,1.90
2022-08-22T10:26:56.034Z,1.97
2022-08-22T10:29:43.953Z,1.57
2022-08-22T10:32:27.109Z,2.70
2022-08-22T10:35:00.634Z,1.80
2022-08-22T10:37:37.186Z,1.97
2022-08-22T10:40:13.678Z,1.90
2022-08-22T10:42:48.047Z,1.83
2022-08-22T10:45:35.926Z,1.90
2022-08-22T10:48:32.448Z,1.93
2022-08-22T10:51:18.071Z,2.00
2022-08-22T10:53:58.592Z,2.10
2022-08-22T10:56:33.934Z,2.63
2022-08-22T10:59:13.886Z,2.40
2022-08-22T11:01:52.316Z,2.00
2022-08-22T11:04:33.029Z,2.60
2022-08-22T11:07:18.263Z,2.40
2022-08-22T11:09:58.183Z,2.10
2022-08-22T11:12:41.922Z,2.43
2022-08-22T11:15:34.673Z,2.83
2022-08-22T11:18:21.412Z,2.27
2022-08-22T11:20:59.782Z,2.07
2022-08-22T11:23:43.305Z,2.40
2022-08-22T11:26:33.690Z,2.90
2022-08-22T11:29:33.472Z,1.93
2022-08-22T11:32:07.826Z,1.93
2022-08-22T11:34:50.700Z,2.00
2022-08-22T11:37:44.582Z,1.80
2022-08-22T11:40:37.956Z,1.60
2022-08-22T11:43:24.366Z,2.00
2022-08-22T11:45:57.528Z,2.07
2022-08-22T11:48:33.572Z,2.20
2022-08-22T11:51:15.079Z,1.80
2022-08-22T11:53:47.257Z,1.90
2022-08-22T11:56:28.190Z,1.83
2022-08-22T11:59:03.139Z,1.70
2022-08-22T12:01:41.784Z,2.17
2022-08-22T12:04:16.686Z,2.50
2022-08-22T12:06:56.308Z,1.92
2022-08-22T12:09:43.420Z,2.00
2022-08-22T12:12:21.282Z,1.80
2022-08-22T12:14:57.389Z,2.43
2022-08-22T12:18:08.295Z,2.00
2022-08-22T12:21:04.545Z,1.83
2022-08-22T12:23:52.739Z,2.10
2022-08-22T12:26:31.698Z,2.07
2022-08-22T12:29:17.659Z,1.30
2022-08-22T12:32:33.306Z,2.70
2022-08-22T12:35:14.917Z,1.50
2022-08-22T12:37:52.898Z,1.80
2022-08-22T12:40:31.475Z,1.90
2022-08-22T12:43:15.775Z,1.80
2022-08-22T12:46:06.456Z,1.63
2022-08-22T12:49:09.062Z,1.87
2022-08-22T12:51:46.839Z,1.90
2022-08-22T12:54:41.867Z,1.67
2022-08-22T12:57:23.777Z,1.80
2022-08-22T12:59:58.112Z,1.83
2022-08-22T13:02:31.824Z,2.10
2022-08-22T13:05:03.886Z,1.87
2022-08-22T13:07:36.335Z,2.07
2022-08-22T13:10:34.989Z,1.50
2022-08-22T13:13:12.392Z,1.40
2022-08-22T13:15:46.403Z,1.80
2022-08-22T13:18:29.778Z,1.60
2022-08-22T13:21:02.024Z,1.73
2022-08-22T13:23:34.351Z,1.77
2022-08-22T13:26:31.756Z,1.63
2022-08-22T13:31:58.305Z,2.07
2022-08-22T13:34:40.028Z,1.90
2022-08-22T13:37:14.211Z,1.43
2022-08-22T13:39:46.848Z,1.60
2022-08-22T13:42:30.619Z,2.30
2022-08-22T13:45:02.676Z,1.50
2022-08-22T13:47:39.456Z,1.90
2022-08-22T13:50:15.522Z,2.07
2022-08-22T13:52:52.193Z,2.10
2022-08-22T13:55:30.597Z,1.80
2022-08-22T13:58:07.582Z,2.07
2022-08-22T14:01:28.916Z,1.87
2022-08-22T14:04:00.125Z,1.73
2022-08-22T14:06:41.534Z,1.50
2022-08-22T14:09:31.408Z,1.90
2022-08-22T14:12:12.617Z,2.17
2022-08-22T14:14:45.822Z,2.17
2022-08-22T14:17:17.440Z,1.47
2022-08-22T14:19:59.031Z,1.70
2022-08-22T14:22:35.383Z,1.43
2022-08-22T14:25:07.460Z,1.63
2022-08-22T14:27:39.685Z,1.70
2022-08-22T14:30:15.509Z,2.33
2022-08-22T14:32:48.146Z,1.80
2022-08-22T14:35:37.592Z,1.80
2022-08-22T14:38:30.483Z,1.60
2022-08-22T14:41:03.218Z,2.13
2022-08-22T14:43:50.437Z,2.00
2022-08-22T14:46:23.957Z,1.93
2022-08-22T14:49:13.544Z,1.27
2022-08-22T14:51:47.409Z,1.77
2022-08-22T14:54:22.848Z,1.60
2022-08-22T14:56:57.960Z,1.87
2022-08-22T14:59:33.956Z,1.97
2022-08-22T15:02:05.804Z,1.63
2022-08-22T15:04:38.384Z,1.90
2022-08-22T15:07:07.791Z,1.73
2022-08-22T15:09:41.554Z,2.00
2022-08-22T15:12:22.053Z,1.60
2022-08-22T15:14:54.092Z,2.00
2022-08-22T15:17:39.649Z,1.83
2022-08-22T15:20:27.671Z,1.67
2022-08-22T15:22:58.199Z,2.10
2022-08-22T15:25:31.877Z,1.60
2022-08-22T15:28:05.721Z,2.10
2022-08-22T15:30:44.400Z,2.10
2022-08-22T15:33:16.969Z,2.07
2022-08-22T15:35:47.575Z,1.90
2022-08-22T15:38:28.034Z,2.40
2022-08-22T15:41:18.015Z,1.60
2022-08-22T15:43:49.078Z,2.03
2022-08-22T15:46:26.671Z,1.50
2022-08-22T15:48:56.537Z,1.70
2022-08-22T15:51:38.231Z,1.90
2022-08-22T15:54:24.329Z,1.90
2022-08-22T15:57:16.351Z,1.73
2022-08-22T15:59:55.395Z,1.80
2022-08-22T16:02:29.033Z,2.23
2022-08-22T16:05:19.363Z,1.87
2022-08-22T16:07:50.564Z,1.90
2022-08-22T16:10:32.550Z,2.27
2022-08-22T16:13:15.254Z,1.83
2022-08-22T16:15:57.418Z,2.17
2022-08-22T16:19:02.767Z,2.20
2022-08-22T16:22:08.239Z,2.80
2022-08-22T16:25:05.456Z,2.00
2022-08-22T16:27:34.305Z,2.53
2022-08-22T16:30:30.671Z,2.33
2022-08-22T16:32:58.721Z,2.40
2022-08-22T16:36:05.655Z,2.13
2022-08-22T16:38:40.981Z,2.40
2022-08-22T16:41:31.019Z,2.73
2022-08-22T16:44:23.358Z,2.90
2022-08-22T16:46:54.190Z,2.90
2022-08-22T16:49:28.614Z,2.53
2022-08-22T16:52:36.047Z,2.43
2022-08-22T16:55:07.037Z,2.20
2022-08-22T16:57:59.258Z,3.73
2022-08-22T17:00:42.004Z,2.10
2022-08-22T17:03:20.588Z,2.80
2022-08-22T17:05:56.711Z,2.30
2022-08-22T17:08:40.919Z,2.00
2022-08-22T17:11:24.235Z,2.43
2022-08-22T17:14:09.656Z,2.03
2022-08-22T17:16:54.084Z,2.30
2022-08-22T17:19:36.436Z,2.70
2022-08-22T17:22:10.893Z,2.17
2022-08-22T17:24:46.091Z,2.40
2022-08-22T17:27:20.347Z,2.83
2022-08-22T17:30:02.022Z,2.77
2022-08-22T17:32:42.935Z,2.83
2022-08-22T17:35:26.006Z,2.07
2022-08-22T17:38:05.235Z,2.50
2022-08-22T17:40:42.239Z,3.50
2022-08-22T17:43:22.647Z,2.20
2022-08-22T17:46:28.020Z,2.50
2022-08-22T17:49:02.470Z,2.70
2022-08-22T17:51:34.201Z,2.70
2022-08-22T17:54:07.295Z,2.40
2022-08-22T17:56:43.489Z,2.57
2022-08-22T17:59:24.338Z,2.13
2022-08-22T18:01:56.215Z,2.57
2022-08-22T18:04:34.183Z,3.00
2022-08-22T18:07:28.735Z,2.23
2022-08-22T18:10:02.855Z,2.67
2022-08-22T18:12:39.033Z,2.90
2022-08-22T18:15:10.688Z,2.50
2022-08-22T18:17:41.267Z,2.60
2022-08-22T18:20:12.558Z,3.17
2022-08-22T18:22:48.159Z,2.33
2022-08-22T18:25:32.419Z,2.40
2022-08-22T18:28:07.367Z,2.60
2022-08-22T18:30:49.067Z,2.57
2022-08-22T18:33:23.655Z,2.60
2022-08-22T18:36:01.729Z,3.13
2022-08-22T18:38:36.851Z,2.33
2022-08-22T18:41:11.487Z,2.87
2022-08-22T18:43:42.615Z,2.83
2022-08-22T18:46:33.596Z,2.30
2022-08-22T18:49:15.410Z,2.40
2022-08-22T18:51:44.719Z,2.40
2022-08-22T18:54:40.169Z,2.30
2022-08-22T18:57:23.793Z,2.63
2022-08-22T19:00:07.771Z,2.47
2022-08-22T19:02:57.510Z,2.80
2022-08-22T19:05:42.481Z,2.93
2022-08-22T19:08:34.684Z,2.50
2022-08-22T19:11:19.957Z,2.40
2022-08-22T19:14:08.998Z,2.30
2022-08-22T19:17:05.017Z,2.17
2022-08-22T19:20:04.513Z,2.30
2022-08-22T19:22:34.354Z,2.60
2022-08-22T19:25:17.974Z,2.77
2022-08-22T19:28:08.602Z,2.67
2022-08-22T19:30:41.395Z,2.33
2022-08-22T19:33:11.326Z,2.13
2022-08-22T19:36:02.278Z,2.13
2022-08-22T19:38:59.975Z,5.03
2022-08-22T19:41:47.106Z,3.47
2022-08-22T19:44:36.303Z,2.43
2022-08-22T19:47:10.482Z,3.40
2022-08-22T19:49:41.634Z,2.83
2022-08-22T19:52:22.100Z,2.37
2022-08-22T19:55:02.400Z,2.70
2022-08-22T19:57:40.559Z,2.27
2022-08-22T20:00:14.097Z,2.93
2022-08-22T20:02:55.836Z,2.90
2022-08-22T20:05:33.115Z,2.67
2022-08-22T20:08:25.838Z,2.80
2022-08-22T20:11:05.025Z,2.70
2022-08-22T20:13:35.453Z,2.80
2022-08-22T20:16:22.118Z,2.47
2022-08-22T20:19:17.171Z,3.10
2022-08-22T20:21:54.747Z,2.37
2022-08-22T20:24:28.233Z,2.40
2022-08-22T20:27:13.507Z,2.97
2022-08-22T20:29:47.070Z,3.47
2022-08-22T20:32:19.379Z,3.20
2022-08-22T20:34:48.425Z,3.10
2022-08-22T20:37:32.292Z,3.07
2022-08-22T20:40:55.705Z,2.50
2022-08-22T20:43:17.920Z,2.60
2022-08-22T20:45:59.442Z,3.10
2022-08-22T20:48:36.261Z,2.97
2022-08-22T20:51:05.338Z,2.70
2022-08-22T20:53:34.566Z,2.73
2022-08-22T20:56:03.144Z,2.90
2022-08-22T20:58:39.630Z,3.00
2022-08-22T21:01:11.279Z,3.00
2022-08-22T21:03:44.265Z,2.87
2022-08-22T21:06:14.849Z,3.30
2022-08-22T21:08:43.439Z,2.83
2022-08-22T21:11:38.424Z,3.10
2022-08-22T21:14:19.667Z,2.40
2022-08-22T21:16:47.544Z,2.60
2022-08-22T21:19:21.110Z,3.10
2022-08-22T21:21:48.856Z,2.77
2022-08-22T21:24:17.063Z,3.00
2022-08-22T21:26:50.321Z,3.50
2022-08-22T21:29:23.314Z,2.93
2022-08-22T21:31:54.184Z,3.10
2022-08-22T21:34:32.518Z,2.87
2022-08-22T21:37:08.451Z,3.10
2022-08-22T21:39:42.796Z,3.50
2022-08-22T21:42:13.667Z,3.17
2022-08-22T21:44:43.031Z,2.90
2022-08-22T21:47:30.930Z,2.93
2022-08-22T21:50:03.888Z,3.10
2022-08-22T21:52:34.353Z,2.83
2022-08-22T21:55:25.383Z,3.20
2022-08-22T21:58:12.590Z,3.33
2022-08-22T22:00:48.695Z,3.00
2022-08-22T22:03:19.977Z,2.60
2022-08-22T22:05:50.129Z,3.00
2022-08-22T22:08:18.689Z,2.50
2022-08-22T22:10:48.845Z,3.10
2022-08-22T22:13:17.025Z,2.70
2022-08-22T22:15:47.837Z,2.70
2022-08-22T22:18:18.325Z,2.70
2022-08-22T22:20:47.442Z,3.13
2022-08-22T22:23:16.684Z,3.40
2022-08-22T22:25:45.686Z,3.40
2022-08-22T22:28:19.850Z,3.27
2022-08-22T22:30:50.498Z,3.50
2022-08-22T22:33:18.900Z,3.20
2022-08-22T22:35:47.347Z,3.20
2022-08-22T22:38:19.530Z,3.50
2022-08-22T22:40:51.124Z,3.23
2022-08-22T22:43:18.882Z,3.67
2022-08-22T22:45:46.658Z,3.20
2022-08-22T22:48:24.109Z,3.30
2022-08-22T22:50:52.591Z,2.80
2022-08-22T22:53:38.621Z,3.60
2022-08-22T22:56:11.945Z,3.43
2022-08-22T22:58:39.819Z,2.93
2022-08-22T23:01:09.455Z,3.27
2022-08-22T23:03:37.246Z,3.33
2022-08-22T23:06:05.223Z,3.20
2022-08-22T23:08:34.287Z,3.20
2022-08-22T23:11:08.817Z,3.00
2022-08-22T23:13:37.334Z,3.77
2022-08-22T23:16:08.656Z,3.37
2022-08-22T23:18:36.454Z,3.10
2022-08-22T23:21:11.567Z,3.40
2022-08-22T23:23:40.819Z,3.03
2022-08-22T23:26:11.834Z,3.50
2022-08-22T23:28:42.557Z,3.10
2022-08-22T23:31:12.680Z,3.27
2022-08-22T23:33:40.509Z,3.27
2022-08-22T23:36:13.550Z,3.37
2022-08-22T23:38:42.840Z,3.03
2022-08-22T23:41:12.271Z,3.33
2022-08-22T23:43:43.365Z,3.40
2022-08-22T23:46:11.400Z,3.80
2022-08-22T23:48:39.134Z,3.67
2022-08-22T23:51:07.668Z,3.30
2022-08-22T23:53:35.615Z,2.87
2022-08-22T23:56:19.416Z,3.17
2022-08-22T23:58:49.173Z,3.60
